Terminal Aerodrome Forecast
Issued by NWS Quad Cities IA IL

Home | Current Version | Previous Version | Text Only | Print | Product List | Glossary On
Versions: 1 2 3 4 5 6 7 8 9 10 11 12 13 14 15 16 17 18 19 20 21 22 23 24 25 26 27 28 29 30 31 32 33 34 35 36
041
FTUS43 KDVN 191317 AAA
TAFDBQ
TAF AMD
KDBQ 191317Z 1913/2012 VRB03KT P6SM SCT050
      TEMPO 1913/1915 BKN009
     FM192100 14006KT P6SM BKN050 PROB30 1923/2003 4SM TSRA BKN040CB
     FM200300 19008KT P6SM BKN050 PROB30 2003/2007 VRB20G35KT 3SM
      TSRA BKN035CB=

USA.gov is the U.S. government's official web portal to all federal, state and local government web resources and services.